Time;durP1;ratioP1;P1;durP2;ratioP2;P2;SDS_P1;SDS_P2;PMS_P1;PMS_P2;Temp;Humidity;BMP_temperature;BMP_pressure;BME280_temperature;BME280_humidity;BME280_pressure;Samples;Min_cycle;Max_cycle;Signal;HPM_P1;HPM_P2
2021/05/29 00:01:08;;;;;;;6.03;4.60;;;16.90;64.70;;;;;;6320989;22;20041;-74
2021/05/29 00:03:34;;;;;;;4.97;3.97;;;16.90;64.80;;;;;;6321099;22;20011;-73
2021/05/29 00:06:01;;;;;;;4.85;4.40;;;16.90;64.80;;;;;;6320867;22;20034;-72
2021/05/29 00:08:27;;;;;;;5.13;4.63;;;17.00;64.90;;;;;;6322079;22;20011;-73
2021/05/29 00:10:56;;;;;;;5.65;4.32;;;16.90;64.80;;;;;;6321945;22;20007;-72
2021/05/29 00:13:24;;;;;;;6.00;4.35;;;16.90;64.80;;;;;;6321147;22;20427;-73
2021/05/29 00:15:50;;;;;;;4.82;4.22;;;16.90;64.90;;;;;;6320945;22;20351;-73
2021/05/29 00:18:16;;;;;;;4.88;4.38;;;16.90;64.90;;;;;;6320959;22;20090;-73
2021/05/29 00:20:42;;;;;;;6.55;4.28;;;16.90;64.90;;;;;;6310783;22;20015;-73
2021/05/29 00:23:09;;;;;;;4.78;4.35;;;16.90;64.90;;;;;;6321149;22;20068;-73
2021/05/29 00:25:36;;;;;;;5.53;4.63;;;16.90;64.90;;;;;;6310751;22;20023;-73
2021/05/29 00:28:03;;;;;;;4.55;4.15;;;16.90;64.90;;;;;;6321002;22;20011;-72
2021/05/29 00:30:29;;;;;;;5.25;4.20;;;16.90;64.90;;;;;;6320938;22;20065;-73
2021/05/29 00:32:56;;;;;;;4.80;4.30;;;16.90;65.00;;;;;;6321070;22;20011;-72
2021/05/29 00:35:22;;;;;;;5.68;4.95;;;16.90;65.00;;;;;;6311674;22;20072;-73
2021/05/29 00:37:48;;;;;;;4.53;4.05;;;16.90;65.00;;;;;;6320543;22;20427;-73
2021/05/29 00:40:15;;;;;;;4.45;4.05;;;16.90;65.00;;;;;;6320961;22;20011;-72
2021/05/29 00:42:41;;;;;;;5.78;3.90;;;16.90;65.00;;;;;;6321208;22;20011;-74
2021/05/29 00:45:08;;;;;;;5.32;4.50;;;16.90;65.00;;;;;;6321052;22;20015;-73
2021/05/29 00:47:34;;;;;;;4.85;4.35;;;16.90;65.70;;;;;;6318376;22;20014;-73
2021/05/29 00:50:07;;;;;;;6.63;4.30;;;16.90;65.00;;;;;;6320455;22;20408;-73
2021/05/29 00:52:35;;;;;;;4.60;4.18;;;16.90;65.00;;;;;;6309928;22;20007;-73
2021/05/29 00:55:06;;;;;;;4.80;4.30;;;16.90;65.00;;;;;;6321459;22;20026;-73
2021/05/29 00:57:32;;;;;;;6.00;4.28;;;16.90;65.00;;;;;;6321375;22;20102;-73
2021/05/29 00:59:58;;;;;;;6.10;4.70;;;16.90;65.00;;;;;;6320804;22;20018;-74
2021/05/29 01:02:24;;;;;;;4.28;3.70;;;16.90;65.10;;;;;;6310161;22;20018;-73
2021/05/29 01:04:50;;;;;;;6.28;4.78;;;16.90;65.10;;;;;;6310352;22;20038;-73
2021/05/29 01:07:17;;;;;;;4.97;4.03;;;16.90;65.10;;;;;;6320140;22;20439;-73
2021/05/29 01:09:44;;;;;;;5.93;4.40;;;16.90;65.20;;;;;;6320425;22;20449;-73
2021/05/29 01:12:13;;;;;;;4.40;3.80;;;16.90;65.20;;;;;;6320542;22;20086;-74
2021/05/29 01:14:58;;;;;;;5.72;4.30;;;16.90;65.20;;;;;;6320838;22;20018;-73
2021/05/29 01:17:28;;;;;;;5.50;4.35;;;16.90;65.20;;;;;;6310183;22;20114;-72
2021/05/29 01:19:54;;;;;;;6.05;4.95;;;16.80;65.10;;;;;;6320898;22;20068;-73
2021/05/29 01:22:53;;;;;;;5.68;4.63;;;16.90;65.20;;;;;;6320534;22;20011;-73
2021/05/29 01:25:24;;;;;;;5.68;4.60;;;16.90;65.20;;;;;;6228910;22;20034;-72
2021/05/29 01:28:01;;;;;;;4.63;4.10;;;16.80;65.20;;;;;;6319991;22;20339;-73
2021/05/29 01:30:30;;;;;;;5.30;4.50;;;16.80;65.20;;;;;;6320958;22;20019;-72
2021/05/29 01:32:58;;;;;;;6.57;4.75;;;16.80;65.20;;;;;;6292737;22;20011;-74
2021/05/29 01:35:24;;;;;;;5.43;4.80;;;16.80;65.20;;;;;;6310487;22;20007;-73
2021/05/29 01:37:52;;;;;;;5.22;4.18;;;16.90;65.30;;;;;;6320125;22;20022;-73
2021/05/29 01:40:18;;;;;;;5.78;4.20;;;16.90;65.30;;;;;;6283066;22;20094;-73
2021/05/29 01:42:46;;;;;;;5.15;4.18;;;16.90;65.30;;;;;;6310023;22;20015;-73
2021/05/29 01:45:12;;;;;;;5.28;4.47;;;16.90;65.30;;;;;;6320246;22;20095;-72
2021/05/29 01:47:43;;;;;;;6.45;4.60;;;16.80;65.30;;;;;;6317343;22;20007;-73
2021/05/29 01:50:15;;;;;;;5.53;4.97;;;16.90;65.30;;;;;;6311025;22;20026;-73
2021/05/29 01:52:51;;;;;;;5.20;4.68;;;16.90;65.40;;;;;;6319641;22;20361;-74
2021/05/29 01:55:22;;;;;;;6.05;4.65;;;16.90;65.40;;;;;;6309563;22;20425;-73
2021/05/29 01:57:50;;;;;;;5.68;4.13;;;16.80;65.30;;;;;;6310587;22;20015;-73
2021/05/29 02:00:20;;;;;;;6.47;4.85;;;16.80;65.30;;;;;;6319674;22;20051;-73
2021/05/29 02:02:47;;;;;;;5.47;4.45;;;16.90;65.40;;;;;;6309674;22;20065;-73
2021/05/29 02:05:22;;;;;;;4.60;4.18;;;16.80;65.40;;;;;;6293361;22;20008;-73
2021/05/29 02:07:48;;;;;;;5.25;4.72;;;16.90;65.50;;;;;;6309720;22;20030;-73
2021/05/29 02:10:18;;;;;;;5.20;4.70;;;16.80;65.40;;;;;;6319861;22;20007;-74
2021/05/29 02:12:46;;;;;;;6.07;4.30;;;16.80;65.40;;;;;;6319774;22;20083;-73
2021/05/29 02:15:17;;;;;;;5.53;4.97;;;16.80;65.40;;;;;;6268373;22;20015;-73
2021/05/29 02:17:44;;;;;;;4.68;4.28;;;16.80;65.40;;;;;;6320079;22;20010;-72
2021/05/29 02:20:11;;;;;;;6.03;4.65;;;16.80;65.40;;;;;;6309808;22;20065;-72
2021/05/29 02:22:37;;;;;;;4.57;4.18;;;16.80;65.40;;;;;;6319933;22;20095;-73
2021/05/29 02:25:07;;;;;;;5.70;4.78;;;16.80;65.40;;;;;;6320872;22;20058;-73
2021/05/29 02:27:36;;;;;;;5.50;4.53;;;16.80;65.40;;;;;;6309680;22;20416;-73
2021/05/29 02:30:07;;;;;;;5.53;4.47;;;16.80;65.40;;;;;;6320295;22;20011;-72
2021/05/29 02:32:33;;;;;;;5.25;4.72;;;16.80;65.40;;;;;;6308882;22;20433;-74
2021/05/29 02:34:59;;;;;;;5.68;4.65;;;16.80;65.50;;;;;;6309814;22;20011;-73
2021/05/29 02:37:24;;;;;;;6.43;4.95;;;16.80;65.50;;;;;;6309518;22;20419;-73
2021/05/29 02:39:50;;;;;;;5.75;4.93;;;16.80;65.50;;;;;;6320364;22;20011;-73
2021/05/29 02:42:16;;;;;;;6.03;5.20;;;16.80;65.50;;;;;;6319437;22;20090;-73
2021/05/29 02:44:45;;;;;;;5.93;5.18;;;16.80;65.60;;;;;;6320373;22;20014;-73
2021/05/29 02:47:11;;;;;;;5.53;4.93;;;16.80;66.20;;;;;;6319418;22;20400;-74
2021/05/29 02:49:37;;;;;;;6.57;5.35;;;16.80;65.60;;;;;;6320021;22;20053;-73
2021/05/29 02:52:03;;;;;;;5.85;5.35;;;16.80;65.60;;;;;;6309585;22;20261;-73
2021/05/29 02:54:29;;;;;;;6.50;5.22;;;16.80;65.60;;;;;;6310832;22;20015;-72
2021/05/29 02:56:54;;;;;;;6.15;4.63;;;16.80;65.60;;;;;;6322100;22;20085;-73
2021/05/29 02:59:20;;;;;;;6.90;5.70;;;16.80;65.60;;;;;;6322315;22;20061;-73
2021/05/29 03:01:46;;;;;;;5.43;4.90;;;16.80;65.70;;;;;;6321532;22;20011;-72
2021/05/29 03:04:13;;;;;;;6.13;5.53;;;16.70;65.60;;;;;;6321863;22;20015;-72
2021/05/29 03:06:38;;;;;;;8.70;5.50;;;16.70;65.70;;;;;;6321870;22;20080;-72
2021/05/29 03:09:05;;;;;;;6.32;5.47;;;16.80;65.70;;;;;;6322571;22;20412;-72
2021/05/29 03:11:35;;;;;;;6.38;5.53;;;16.80;65.70;;;;;;6321942;22;20011;-73
2021/05/29 03:14:00;;;;;;;7.32;5.63;;;16.80;65.70;;;;;;6321766;22;20007;-72
2021/05/29 03:16:27;;;;;;;6.50;5.20;;;16.70;65.70;;;;;;6321767;22;20416;-72
2021/05/29 03:18:52;;;;;;;5.65;4.90;;;16.80;65.70;;;;;;6322137;22;20262;-72
2021/05/29 03:21:18;;;;;;;5.88;5.00;;;16.70;65.70;;;;;;6294900;22;20044;-72
2021/05/29 03:23:44;;;;;;;6.07;4.82;;;16.70;65.70;;;;;;6294559;22;20296;-73
2021/05/29 03:26:10;;;;;;;5.32;4.82;;;16.80;65.70;;;;;;6311458;22;20045;-72
2021/05/29 03:28:36;;;;;;;5.93;5.32;;;16.80;65.70;;;;;;6321709;22;20007;-72
2021/05/29 03:31:01;;;;;;;5.38;4.80;;;16.80;65.70;;;;;;6321214;22;20088;-73
2021/05/29 03:33:27;;;;;;;6.35;5.30;;;16.80;65.80;;;;;;6321559;22;20035;-73
2021/05/29 03:35:53;;;;;;;6.68;5.03;;;16.70;65.70;;;;;;6321575;22;20035;-73
2021/05/29 03:38:19;;;;;;;6.20;5.60;;;16.80;65.80;;;;;;6321273;22;20017;-72
2021/05/29 03:40:46;;;;;;;6.22;5.63;;;16.80;65.70;;;;;;6321662;22;20012;-72
2021/05/29 03:43:12;;;;;;;7.85;5.90;;;16.80;65.80;;;;;;6321452;22;20007;-71
2021/05/29 03:45:38;;;;;;;5.75;5.15;;;16.80;65.70;;;;;;6322266;22;20011;-72
2021/05/29 03:48:04;;;;;;;6.18;5.18;;;16.80;65.80;;;;;;6310860;22;20019;-72
2021/05/29 03:50:30;;;;;;;6.95;4.78;;;16.70;65.70;;;;;;6321534;22;20278;-72
2021/05/29 03:52:56;;;;;;;5.85;5.18;;;16.80;65.70;;;;;;6321623;22;20072;-73
2021/05/29 03:55:23;;;;;;;7.07;5.32;;;16.80;65.70;;;;;;6311080;22;20416;-73
2021/05/29 03:57:50;;;;;;;5.88;5.25;;;16.70;65.70;;;;;;6321354;22;20026;-73
2021/05/29 04:00:18;;;;;;;5.78;5.07;;;16.70;65.70;;;;;;6321991;22;20011;-72
2021/05/29 04:02:45;;;;;;;6.45;4.95;;;16.70;65.70;;;;;;6320647;22;20008;-73
2021/05/29 04:05:13;;;;;;;5.72;5.13;;;16.70;65.70;;;;;;6321843;22;20026;-73
2021/05/29 04:07:39;;;;;;;6.20;4.95;;;16.70;65.70;;;;;;6321190;22;20045;-72
2021/05/29 04:10:08;;;;;;;7.45;5.20;;;16.70;65.70;;;;;;6310768;22;20033;-73
2021/05/29 04:12:34;;;;;;;5.93;5.32;;;16.70;65.70;;;;;;6321022;22;20007;-73
2021/05/29 04:15:00;;;;;;;7.07;5.28;;;16.80;65.80;;;;;;6321110;22;20064;-73
2021/05/29 04:17:27;;;;;;;6.20;5.25;;;16.70;65.80;;;;;;6311206;22;20007;-72
2021/05/29 04:19:52;;;;;;;6.00;5.40;;;16.70;65.80;;;;;;6321334;22;20007;-72
2021/05/29 04:22:18;;;;;;;6.97;5.32;;;16.70;65.80;;;;;;6294463;22;20061;-72
2021/05/29 04:24:44;;;;;;;6.57;5.32;;;16.70;65.80;;;;;;6321199;22;20434;-71
2021/05/29 04:27:11;;;;;;;6.38;5.00;;;16.70;65.90;;;;;;6310686;22;20011;-72
2021/05/29 04:29:37;;;;;;;5.80;5.13;;;16.70;65.90;;;;;;6311035;22;20011;-72
2021/05/29 04:32:04;;;;;;;6.28;5.10;;;16.70;65.90;;;;;;6321061;22;20022;-73
2021/05/29 04:34:29;;;;;;;6.35;5.68;;;16.70;65.90;;;;;;6321059;22;20011;-72
2021/05/29 04:36:55;;;;;;;6.15;4.90;;;16.70;65.90;;;;;;6311003;22;20011;-73
2021/05/29 04:39:21;;;;;;;12.43;5.53;;;16.70;65.90;;;;;;6321187;22;20022;-71
2021/05/29 04:41:47;;;;;;;9.32;5.68;;;16.60;65.90;;;;;;6320970;22;20011;-71
2021/05/29 04:44:14;;;;;;;10.27;5.22;;;16.70;66.10;;;;;;6310676;22;20300;-74
2021/05/29 04:46:40;;;;;;;6.07;4.90;;;16.70;66.20;;;;;;6320416;22;20314;-72
2021/05/29 04:49:06;;;;;;;9.23;5.30;;;16.60;66.30;;;;;;6313409;22;20006;-72
2021/05/29 04:51:32;;;;;;;12.18;6.25;;;16.70;66.40;;;;;;6320991;22;20076;-73
2021/05/29 04:53:58;;;;;;;17.25;6.30;;;16.60;66.50;;;;;;6320949;22;20332;-72
2021/05/29 04:56:27;;;;;;;18.70;6.30;;;16.70;66.60;;;;;;6320562;22;20045;-84
2021/05/29 04:58:54;;;;;;;10.57;6.03;;;16.70;66.80;;;;;;6310397;22;20027;-72
2021/05/29 05:01:19;;;;;;;14.35;5.93;;;16.70;67.00;;;;;;6320752;22;20065;-72
2021/05/29 05:03:45;;;;;;;12.98;5.32;;;16.70;67.10;;;;;;6320266;22;20022;-74
2021/05/29 05:06:12;;;;;;;16.55;5.80;;;16.70;67.10;;;;;;6310390;22;20039;-75
2021/05/29 05:08:38;;;;;;;13.05;5.80;;;16.70;67.10;;;;;;6320326;22;20094;-73
2021/05/29 05:11:04;;;;;;;10.93;5.35;;;16.70;67.30;;;;;;6293624;22;20039;-75
2021/05/29 05:13:30;;;;;;;9.23;5.45;;;16.70;67.30;;;;;;6321262;22;20073;-76
2021/05/29 05:15:56;;;;;;;12.63;8.10;;;16.70;67.30;;;;;;6321139;22;20034;-74
2021/05/29 05:18:22;;;;;;;18.27;10.73;;;16.70;67.10;;;;;;6320328;22;20300;-75
2021/05/29 05:20:49;;;;;;;16.92;12.48;;;16.70;67.00;;;;;;6310708;22;20011;-77
2021/05/29 05:23:15;;;;;;;13.63;11.30;;;16.60;66.90;;;;;;6293461;22;20010;-78
2021/05/29 05:25:41;;;;;;;16.85;11.82;;;16.60;66.90;;;;;;6310197;22;20082;-77
2021/05/29 05:28:07;;;;;;;18.60;11.70;;;16.60;66.80;;;;;;6320130;22;20054;-77
2021/05/29 05:30:33;;;;;;;17.77;11.77;;;16.50;66.70;;;;;;6320222;22;20031;-78
2021/05/29 05:33:03;;;;;;;21.02;12.85;;;16.50;66.70;;;;;;6293005;22;20011;-77
2021/05/29 05:35:30;;;;;;;17.92;11.75;;;16.50;66.70;;;;;;6310130;22;20272;-77
2021/05/29 05:37:56;;;;;;;14.38;10.48;;;16.50;66.60;;;;;;6309793;22;20025;-77
2021/05/29 05:40:22;;;;;;;14.63;11.35;;;16.50;66.60;;;;;;6319958;22;20039;-81
2021/05/29 05:42:47;;;;;;;21.77;12.50;;;16.50;66.50;;;;;;6319822;22;20082;-74
2021/05/29 05:45:14;;;;;;;17.35;11.18;;;16.50;66.70;;;;;;6320531;22;20426;-75
2021/05/29 05:47:40;;;;;;;16.45;11.38;;;16.40;66.70;;;;;;6318049;22;20346;-74
2021/05/29 05:50:08;;;;;;;21.00;13.55;;;16.40;66.60;;;;;;6310627;22;20018;-74
2021/05/29 05:52:38;;;;;;;16.35;11.85;;;16.40;66.60;;;;;;6320303;22;20007;-72
2021/05/29 05:55:06;;;;;;;13.40;10.80;;;16.40;66.50;;;;;;6320389;22;20007;-76
2021/05/29 05:57:32;;;;;;;15.13;10.98;;;16.40;66.50;;;;;;6319965;22;20501;-75
2021/05/29 05:59:59;;;;;;;13.40;10.75;;;16.40;66.50;;;;;;6320775;22;20011;-73
2021/05/29 06:02:25;;;;;;;16.08;10.82;;;16.40;66.50;;;;;;6320054;22;20431;-74
2021/05/29 06:04:52;;;;;;;15.63;10.65;;;16.40;66.60;;;;;;6320316;22;20524;-75
2021/05/29 06:07:19;;;;;;;18.20;11.70;;;16.40;66.70;;;;;;6320312;22;20039;-74
2021/05/29 06:09:45;;;;;;;17.52;11.63;;;16.40;66.70;;;;;;6319793;22;20405;-74
2021/05/29 06:12:11;;;;;;;15.60;11.02;;;16.40;66.90;;;;;;6320207;22;20007;-75
2021/05/29 06:20:10;;;;;;;13.25;9.43;;;16.40;66.70;;;;;;6319996;22;20014;-75
2021/05/29 06:22:36;;;;;;;13.65;9.13;;;16.40;66.70;;;;;;6320720;22;20007;-75
2021/05/29 06:25:04;;;;;;;10.45;8.80;;;16.50;66.70;;;;;;6320845;22;20015;-74
2021/05/29 06:27:30;;;;;;;10.02;7.97;;;16.50;66.70;;;;;;6310013;22;20015;-76
2021/05/29 06:29:56;;;;;;;15.25;9.48;;;16.50;66.60;;;;;;6309973;22;20017;-74
2021/05/29 06:32:21;;;;;;;13.43;8.90;;;16.50;66.60;;;;;;6319571;22;20042;-74
2021/05/29 06:34:47;;;;;;;13.45;8.40;;;16.50;66.60;;;;;;6320688;22;20019;-75
2021/05/29 06:37:13;;;;;;;10.73;8.02;;;16.50;66.60;;;;;;6320712;22;20272;-74
2021/05/29 06:39:39;;;;;;;9.60;8.27;;;16.50;66.60;;;;;;6319724;22;20400;-75
2021/05/29 06:42:05;;;;;;;11.13;8.10;;;16.50;66.60;;;;;;6320728;22;20011;-75
2021/05/29 06:44:31;;;;;;;9.52;7.78;;;16.60;66.70;;;;;;6319621;22;20304;-74
2021/05/29 06:46:56;;;;;;;12.90;7.85;;;16.60;67.00;;;;;;6319626;22;20015;-73
2021/05/29 06:49:22;;;;;;;9.68;7.78;;;16.60;66.80;;;;;;6311510;22;20007;-74
2021/05/29 06:52:08;;;;;;;10.00;7.18;;;16.50;66.80;;;;;;6320055;22;20026;-75
2021/05/29 06:54:43;;;;;;;7.50;6.65;;;16.60;66.90;;;;;;6320370;22;20027;-75
2021/05/29 06:59:53;;;;;;;10.80;6.45;;;16.60;67.00;;;;;;6319908;22;20061;-74
2021/05/29 07:02:19;;;;;;;7.50;6.15;;;16.60;67.00;;;;;;6320090;22;20007;-74
2021/05/29 07:04:45;;;;;;;10.40;6.60;;;16.60;67.00;;;;;;6320660;22;20011;-75
2021/05/29 07:07:11;;;;;;;8.88;6.40;;;16.60;67.00;;;;;;6292983;22;20078;-74
2021/05/29 07:09:37;;;;;;;9.55;6.43;;;16.60;67.00;;;;;;6319944;22;20011;-74
2021/05/29 07:12:03;;;;;;;8.68;6.07;;;16.60;67.00;;;;;;6319913;22;20011;-73
2021/05/29 07:14:29;;;;;;;7.30;6.30;;;16.60;67.00;;;;;;6320774;22;20011;-74
2021/05/29 07:16:56;;;;;;;7.72;5.95;;;16.60;67.10;;;;;;6320101;22;20068;-75
2021/05/29 07:19:25;;;;;;;7.93;6.07;;;16.60;67.10;;;;;;6320305;22;20361;-74
2021/05/29 07:21:51;;;;;;;8.02;5.90;;;16.60;67.10;;;;;;6320055;22;20011;-75
2021/05/29 07:24:18;;;;;;;7.63;5.80;;;16.60;67.10;;;;;;6320332;22;20077;-75
2021/05/29 07:26:45;;;;;;;7.68;6.32;;;16.60;67.10;;;;;;6320079;22;20014;-75
2021/05/29 07:29:11;;;;;;;7.90;5.70;;;16.60;67.10;;;;;;6319438;22;20015;-75
2021/05/29 07:31:37;;;;;;;5.40;4.88;;;16.60;67.10;;;;;;6320334;22;20329;-75
2021/05/29 07:34:03;;;;;;;6.30;5.40;;;16.60;67.20;;;;;;6319644;22;20015;-75
2021/05/29 07:36:29;;;;;;;7.15;5.18;;;16.60;67.20;;;;;;6320169;22;20012;-74
2021/05/29 07:38:55;;;;;;;7.82;5.57;;;16.60;67.10;;;;;;6319536;22;20007;-75
2021/05/29 07:41:21;;;;;;;6.55;5.20;;;16.60;67.10;;;;;;6294500;22;20410;-74
2021/05/29 07:43:48;;;;;;;6.20;5.15;;;16.60;67.20;;;;;;6321624;22;20007;-74
2021/05/29 07:46:16;;;;;;;5.00;4.20;;;16.60;67.20;;;;;;6321498;22;20011;-74
2021/05/29 07:48:42;;;;;;;6.07;5.10;;;16.60;67.20;;;;;;6310979;22;20027;-75
2021/05/29 07:51:09;;;;;;;7.45;5.28;;;16.60;67.20;;;;;;6321888;22;20007;-74
2021/05/29 07:53:39;;;;;;;7.78;5.32;;;16.60;67.20;;;;;;6310648;22;20015;-74
2021/05/29 07:56:11;;;;;;;8.65;5.40;;;16.60;67.20;;;;;;6321501;22;20084;-75
2021/05/29 07:58:40;;;;;;;5.90;4.65;;;16.60;67.10;;;;;;6321173;22;20011;-74
2021/05/29 08:01:07;;;;;;;6.10;5.20;;;16.60;67.20;;;;;;6322190;22;20018;-75
2021/05/29 08:03:34;;;;;;;8.25;5.18;;;16.60;67.80;;;;;;6295346;22;20009;-75
2021/05/29 08:06:03;;;;;;;6.57;4.90;;;16.70;67.20;;;;;;6294792;22;20007;-74
2021/05/29 08:08:29;;;;;;;5.60;4.30;;;16.60;67.20;;;;;;6321516;22;20415;-75
2021/05/29 08:10:57;;;;;;;5.07;4.20;;;16.60;67.20;;;;;;6321675;22;20084;-75
2021/05/29 08:13:25;;;;;;;5.70;4.45;;;16.60;67.20;;;;;;6321598;22;20011;-76
2021/05/29 08:15:51;;;;;;;5.78;4.55;;;16.60;67.20;;;;;;6321424;22;20019;-74
2021/05/29 08:18:17;;;;;;;5.47;4.15;;;16.70;67.30;;;;;;6321603;22;20068;-74
2021/05/29 08:20:45;;;;;;;4.05;3.65;;;16.60;67.20;;;;;;6321256;22;20034;-75
2021/05/29 08:23:11;;;;;;;5.97;3.95;;;16.60;67.20;;;;;;6320842;22;20068;-74
2021/05/29 08:25:37;;;;;;;4.72;3.97;;;16.60;67.20;;;;;;6321394;22;20012;-75
2021/05/29 08:28:03;;;;;;;6.43;4.20;;;16.60;67.20;;;;;;6321923;22;20026;-74
2021/05/29 08:30:33;;;;;;;6.10;3.85;;;16.60;67.10;;;;;;6284709;22;20018;-75
2021/05/29 08:32:59;;;;;;;4.95;3.88;;;16.60;67.10;;;;;;6321094;22;20007;-75
2021/05/29 08:35:26;;;;;;;4.15;3.70;;;16.60;67.10;;;;;;6320774;22;20041;-75
2021/05/29 08:37:52;;;;;;;6.30;4.20;;;16.70;67.20;;;;;;6321023;22;20011;-75
2021/05/29 08:40:19;;;;;;;4.70;3.30;;;16.70;67.20;;;;;;6320809;22;20345;-74
2021/05/29 08:42:46;;;;;;;4.22;3.83;;;16.70;67.20;;;;;;6321365;22;20272;-75
2021/05/29 08:45:14;;;;;;;4.43;3.30;;;16.70;67.20;;;;;;6321053;22;20068;-74
2021/05/29 08:47:40;;;;;;;4.82;3.47;;;16.70;67.20;;;;;;6310575;22;20031;-74
2021/05/29 08:50:07;;;;;;;7.43;4.00;;;16.70;67.20;;;;;;6321280;22;20408;-74
2021/05/29 08:52:37;;;;;;;3.90;3.33;;;16.70;67.20;;;;;;6283093;22;20293;-75
2021/05/29 08:55:15;;;;;;;4.60;3.58;;;16.70;67.30;;;;;;6320964;22;20404;-74
2021/05/29 08:57:42;;;;;;;5.13;3.05;;;16.70;67.30;;;;;;6321198;22;20011;-75
2021/05/29 09:00:15;;;;;;;5.28;4.05;;;16.70;67.30;;;;;;6310165;22;20007;-74
2021/05/29 09:03:02;;;;;;;5.20;3.55;;;16.70;67.30;;;;;;6320907;22;20078;-75
2021/05/29 09:05:38;;;;;;;4.05;3.25;;;16.70;67.30;;;;;;6320796;22;20068;-74
2021/05/29 09:08:09;;;;;;;5.03;3.40;;;16.70;67.30;;;;;;6320603;22;20078;-75
2021/05/29 09:10:39;;;;;;;4.85;3.17;;;16.70;67.30;;;;;;6320900;22;20015;-74
2021/05/29 09:13:29;;;;;;;4.45;3.33;;;16.70;67.30;;;;;;6320593;22;20041;-76
2021/05/29 09:16:06;;;;;;;4.50;3.58;;;16.70;67.30;;;;;;6320857;22;20308;-75
2021/05/29 09:18:41;;;;;;;3.80;3.15;;;16.80;67.40;;;;;;6320804;22;20424;-74
2021/05/29 09:21:31;;;;;;;3.40;3.00;;;16.70;67.30;;;;;;6320591;22;20495;-76
2021/05/29 09:24:14;;;;;;;5.43;3.55;;;16.70;67.30;;;;;;6310051;22;20045;-74
2021/05/29 09:26:53;;;;;;;3.70;3.20;;;16.80;67.40;;;;;;6320668;22;20011;-75
2021/05/29 09:29:19;;;;;;;5.22;3.15;;;16.80;67.40;;;;;;6283078;22;20007;-75
2021/05/29 09:32:05;;;;;;;3.55;3.13;;;16.80;67.40;;;;;;6320583;22;20018;-76
2021/05/29 09:34:51;;;;;;;4.00;3.05;;;16.70;67.30;;;;;;6320463;22;20011;-75
2021/05/29 09:37:19;;;;;;;3.88;3.22;;;16.80;67.40;;;;;;6320571;22;20064;-74
2021/05/29 09:39:50;;;;;;;5.63;3.03;;;16.80;67.40;;;;;;6320303;22;20007;-74
2021/05/29 09:42:18;;;;;;;4.57;2.90;;;16.80;67.50;;;;;;6310136;22;20007;-74
2021/05/29 09:44:44;;;;;;;2.95;2.60;;;16.80;67.50;;;;;;6321081;22;20027;-75
2021/05/29 09:47:15;;;;;;;3.00;2.72;;;16.80;67.50;;;;;;6320005;22;20076;-74
2021/05/29 09:49:52;;;;;;;2.92;2.63;;;16.80;67.50;;;;;;6320750;22;20016;-76
2021/05/29 09:52:36;;;;;;;3.75;2.80;;;16.80;67.40;;;;;;6321047;22;20014;-75
2021/05/29 09:55:06;;;;;;;3.88;3.25;;;16.80;67.50;;;;;;6320395;22;20011;-74
2021/05/29 09:57:53;;;;;;;4.25;2.92;;;16.80;67.50;;;;;;6320180;22;20011;-75
2021/05/29 10:00:20;;;;;;;4.07;3.05;;;16.80;67.50;;;;;;6293358;22;20011;-75
2021/05/29 10:03:02;;;;;;;3.45;3.00;;;16.80;67.50;;;;;;6310138;22;20038;-75
2021/05/29 10:05:30;;;;;;;3.53;3.10;;;16.80;67.50;;;;;;6320299;22;20011;-75
2021/05/29 10:07:56;;;;;;;3.00;2.75;;;16.80;67.60;;;;;;6320504;22;20022;-76
2021/05/29 10:10:22;;;;;;;2.97;2.67;;;16.90;67.60;;;;;;6320930;22;20015;-75
2021/05/29 10:12:47;;;;;;;4.78;2.80;;;16.80;67.60;;;;;;6309385;22;20014;-75
2021/05/29 10:15:16;;;;;;;4.68;3.15;;;16.90;67.60;;;;;;6320203;22;20011;-74
2021/05/29 10:17:44;;;;;;;3.35;2.40;;;16.90;67.60;;;;;;6320238;22;20022;-75
2021/05/29 10:20:11;;;;;;;3.50;2.83;;;16.90;67.60;;;;;;6320295;22;20018;-74
2021/05/29 10:22:37;;;;;;;3.17;2.70;;;16.90;67.70;;;;;;6320512;22;20022;-75
2021/05/29 10:25:10;;;;;;;3.45;2.45;;;16.90;67.60;;;;;;6319557;22;20308;-75
2021/05/29 10:27:37;;;;;;;2.88;2.35;;;16.90;67.60;;;;;;6319823;22;20424;-75
2021/05/29 10:30:04;;;;;;;2.75;2.47;;;16.90;67.70;;;;;;6320205;22;20027;-74
2021/05/29 10:32:30;;;;;;;4.05;2.83;;;16.90;67.70;;;;;;6320277;22;20005;-76
2021/05/29 10:35:06;;;;;;;3.05;2.65;;;16.90;67.70;;;;;;6309484;22;20343;-75
2021/05/29 10:37:38;;;;;;;3.10;2.80;;;16.90;67.70;;;;;;6310238;22;20037;-75
2021/05/29 10:40:24;;;;;;;3.30;2.47;;;16.90;67.70;;;;;;6320366;22;20015;-75
2021/05/29 10:43:41;;;;;;;2.58;2.35;;;16.90;67.60;;;;;;6319693;22;20015;-76
2021/05/29 10:46:12;;;;;;;3.47;2.72;;;16.90;67.60;;;;;;6227013;22;20035;-75
2021/05/29 10:48:49;;;;;;;3.90;2.78;;;16.90;67.60;;;;;;6314559;22;20022;-74
2021/05/29 10:51:18;;;;;;;3.30;2.75;;;16.90;68.20;;;;;;6319838;22;20018;-75
2021/05/29 10:53:44;;;;;;;3.25;2.50;;;16.90;67.60;;;;;;6309293;22;20015;-75
2021/05/29 10:56:18;;;;;;;2.83;2.50;;;16.90;67.60;;;;;;6320074;22;20014;-75
2021/05/29 10:59:15;;;;;;;2.88;2.40;;;16.90;67.60;;;;;;6320295;22;20141;-75
2021/05/29 11:01:50;;;;;;;3.80;2.85;;;17.00;67.60;;;;;;6319849;22;20022;-74
2021/05/29 11:04:16;;;;;;;3.25;2.65;;;16.90;67.60;;;;;;6309499;22;20312;-75
2021/05/29 11:06:43;;;;;;;3.70;2.67;;;17.00;67.60;;;;;;6320919;22;20034;-76
2021/05/29 11:09:10;;;;;;;3.20;2.80;;;17.00;67.60;;;;;;6319880;22;20007;-75
2021/05/29 11:11:36;;;;;;;2.92;2.67;;;17.00;67.60;;;;;;6319907;22;20068;-76
2021/05/29 11:14:05;;;;;;;4.82;2.60;;;17.00;67.60;;;;;;6292653;22;20015;-75
2021/05/29 11:16:49;;;;;;;3.60;2.83;;;17.00;67.60;;;;;;6321684;22;20053;-74
2021/05/29 11:19:20;;;;;;;3.53;2.70;;;17.00;67.60;;;;;;6321539;22;20477;-74
2021/05/29 11:22:07;;;;;;;3.25;2.70;;;17.00;67.60;;;;;;6321865;22;20014;-76
2021/05/29 11:24:42;;;;;;;3.33;2.28;;;17.00;67.60;;;;;;6321428;22;20019;-75
2021/05/29 11:27:17;;;;;;;2.95;2.35;;;17.00;67.60;;;;;;6295126;22;20007;-76
2021/05/29 11:29:53;;;;;;;3.72;2.63;;;17.00;67.60;;;;;;6323233;22;20041;-75
2021/05/29 11:32:47;;;;;;;2.47;2.28;;;17.00;67.60;;;;;;6321658;22;20003;-75
2021/05/29 11:35:32;;;;;;;3.35;2.65;;;17.00;67.50;;;;;;6321787;22;20035;-76
2021/05/29 11:40:53;;;;;;;3.35;2.20;;;17.00;67.60;;;;;;6321683;22;20018;-75
2021/05/29 11:43:49;;;;;;;3.55;2.67;;;17.00;67.60;;;;;;6321588;22;20007;-74
2021/05/29 11:46:23;;;;;;;3.35;2.58;;;17.00;67.60;;;;;;6322069;22;20094;-76
2021/05/29 11:49:06;;;;;;;3.65;2.78;;;17.00;67.70;;;;;;6315058;22;20404;-76
2021/05/29 11:51:35;;;;;;;3.67;2.40;;;17.00;67.60;;;;;;6321956;22;20045;-75
2021/05/29 11:54:07;;;;;;;2.80;2.40;;;17.00;67.70;;;;;;6311889;22;20018;-74
2021/05/29 11:56:35;;;;;;;2.55;2.30;;;17.00;67.70;;;;;;6321553;22;20011;-76
2021/05/29 11:59:04;;;;;;;3.22;2.40;;;17.10;67.80;;;;;;6321465;22;20007;-75
2021/05/29 12:01:35;;;;;;;2.63;2.20;;;17.00;67.70;;;;;;6321665;22;20011;-75
2021/05/29 12:04:03;;;;;;;2.63;2.20;;;17.10;67.70;;;;;;6321613;22;20331;-75
2021/05/29 12:06:36;;;;;;;2.40;2.20;;;17.00;67.70;;;;;;6321360;22;20007;-74
2021/05/29 12:09:16;;;;;;;3.60;2.43;;;17.00;67.70;;;;;;6321776;22;20073;-75
2021/05/29 12:11:50;;;;;;;2.83;2.05;;;17.00;67.60;;;;;;6321694;22;20015;-76
2021/05/29 12:14:27;;;;;;;2.67;2.45;;;17.00;67.60;;;;;;6321373;22;20090;-75
2021/05/29 12:17:07;;;;;;;3.45;2.35;;;17.00;67.60;;;;;;6321270;22;20061;-74
2021/05/29 12:19:45;;;;;;;3.08;2.20;;;17.10;67.70;;;;;;6322115;22;20027;-76
2021/05/29 12:22:25;;;;;;;2.83;2.50;;;17.10;67.70;;;;;;6320641;22;20030;-74
2021/05/29 12:24:52;;;;;;;2.30;2.10;;;17.00;67.60;;;;;;6321235;22;20080;-75
2021/05/29 12:27:22;;;;;;;2.60;2.40;;;17.10;67.70;;;;;;6321182;22;20011;-74
2021/05/29 12:29:49;;;;;;;3.58;2.38;;;17.10;67.60;;;;;;6311891;22;20380;-76
2021/05/29 12:32:38;;;;;;;3.33;2.50;;;17.10;67.70;;;;;;6294171;22;20007;-74
2021/05/29 12:35:08;;;;;;;3.53;2.17;;;17.10;67.70;;;;;;6311153;22;20020;-74
2021/05/29 12:37:35;;;;;;;2.35;2.15;;;17.10;67.70;;;;;;6321443;22;20016;-75
2021/05/29 12:40:12;;;;;;;3.28;2.38;;;17.10;67.70;;;;;;6321114;22;20007;-76
2021/05/29 12:42:40;;;;;;;2.85;2.38;;;17.10;67.70;;;;;;6284109;22;20018;-76
2021/05/29 12:45:12;;;;;;;2.65;2.20;;;17.10;67.70;;;;;;6321079;22;20011;-76
2021/05/29 12:47:38;;;;;;;2.70;2.28;;;17.10;67.70;;;;;;6319355;22;20358;-75
2021/05/29 12:50:14;;;;;;;3.28;2.10;;;17.10;67.70;;;;;;6310656;22;20082;-77
2021/05/29 12:52:41;;;;;;;2.78;2.50;;;17.10;67.70;;;;;;6320954;22;20011;-74
2021/05/29 12:55:17;;;;;;;2.60;2.33;;;17.10;67.70;;;;;;6321304;22;20014;-75
2021/05/29 12:57:43;;;;;;;2.60;2.17;;;17.10;67.70;;;;;;6320912;22;20053;-75
2021/05/29 13:00:23;;;;;;;2.80;2.28;;;17.10;67.70;;;;;;6320862;22;20011;-76
2021/05/29 13:08:46;;;;;;;3.20;2.40;;;17.10;67.70;;;;;;6320618;22;20022;-76
2021/05/29 13:11:32;;;;;;;2.72;2.15;;;17.10;67.70;;;;;;6320775;22;20018;-76
2021/05/29 13:13:59;;;;;;;2.67;2.40;;;17.10;67.70;;;;;;6320292;22;20011;-75